Stalldalen, Sweden

8:00 AM CEST on August 02, 2014 (GMT +0200)
resident area (IDALARNA34) Elev 584 ft | 60.13 °N, 15.18 °E | Change Station

Current weather conditions updated 8 seconds ago

Clear
Clear
67.1 °F
Feels Like 67.1 °F
N
3.1
Wind Variable Wind from SE
Gusts 3.8 mph

Today is forecast to be Warmer than yesterday. Showers late tonight.

Today
High -- | Low -- °F
--% Chance of Precip.
Yesterday
High -- | Low -- °F
Precip. -- in
4:43 AM 9:28 PM
Waxing Crescent, 32% visible
Pressure 30.04 in
Visibility 6.2 miles
Clouds
Dew Point 60 °F
Humidity 77%
Rainfall 0.00 in
Snow Depth Not available.
UV Not available.
Pollen Not available.
Air Quality Not available.
Flu Activity Not available.
METAR ESSD 020550Z AUTO 00000KT 9999 NCD 18/14 Q1017

More Conditions Fewer Conditions

Pressure 30.04 in
Visibility 6.2 miles
Clouds
Dew Point 60 °F
Humidity 77%
Rainfall 0.00 in
Snow Depth Not available.
UV Not available.
Pollen Not available.
Air Quality Not available.
Flu Activity Not available.
METAR ESSD 020550Z AUTO 00000KT 9999 NCD 18/14 Q1017

More Conditions Fewer Conditions

10-Day Weather Forecast

Almanac

Astronomy

Aug. 02, 2014 Rise Set
Actual Time 4:43 AM CEST 9:28 PM CEST
Civil Twilight 3:43 AM CEST 10:27 PM CEST
Nautical Twilight 1:34 AM CEST 12:24 AM CEST
Astronomical Twilight Sun does not rise Sun does not rise
Moon 12:36 PM CEST 10:43 PM CEST
Length of Visible Light 18h 43m
Length of Day
16h 45m
Tomorrow will be 4m 53s shorter.
Waxing Crescent, 32% of the Moon is Illuminated
Today
Waxing Crescent
Aug 3
First Quarter
Aug 10
Full
Aug 17
Last Quarter
Aug 25
New

Yesterday's Extremes

Country Highs Country Lows

Community

WunderPhotos

Upload Photos

1,739,830 photos uploaded!

Nearby

Snow Depth

Not available.

Earthquake Activity

City Distance Mag. Time & Date
No recent earthquake activity has been reported nearby.
Minimum magnitude displayed is 2.5.

Coastal Water Temperatures

Place Temperature
No Stations Reporting

Nearby Weather Stations

Station Location Temp. Dew Point Humidity Wind Precip. Elev Updated Type
resident area, Ludvika 67.1 °F 60 °F 77% SE  at  3.1 mph 0.00 in / hr 584 ft 8:00 AM CEST Rapid Fire
LUDVIKA 66.7 °F 56 °F 69% SSW  at  0.0 mph 0.00 in / hr 560 ft 8:00 AM CEST Normal
Ludvika City, Sweden, Ludvika 69.6 °F 59 °F 69% NNE  at  0.7 mph 0.00 in / hr 649 ft 8:00 AM CEST Normal

Show More Stations Show Fewer Stations